Detall de PIREP

Printer-friendly versionPDF version

[2012/09/15 14:57:00]
Flight IATA:CT1001
Pilot Number:042
Company ICAO:CAT
Aircraft Type:AT72/F
PAX:12
Departing Airport: LICJ
Destination Airport: LICG
Alternate Airport:DTTA
Online: VATSIM
Route:TRP L869 MEGAN M740 ROBET
Flight Level:F110
No Slew and time accel
No pause
Crash detect
Detect pilot in Cockpit between each 30 and 45 minutes
14:57 Zero fuel Weight: 40069 Lbs, Fuel Weight: 11197 Lbs
14:57 VATSIM:LICJ 151420Z 36013KT 9999 SCT025 24/17 Q1009
14:57 VATSIM:LICG 151355Z 33012KT 9999 FEW020 SCT026 23/19 Q1010
14:58 VOICE CATALONIAN/MEDITERRANEAN ODYSSEY
15:09 Parking Brakes off
15:15 Take-off
15:15 Take off Weight: 51170 Lbs
15:15 Wind: 359º @ 013 Knots Heading: 022º
15:15 POS N38º 10´ 47´´ E013º 05´ 34´´
15:15 Gear Up: 124 Knots
15:15 Flaps:1 at 124 Knots
15:15 Flaps:0 at 128 Knots
15:21 TOC
15:21 Fuel Weight: 10818 Lb
15:30 Wind:354º@029 Knots Heading: 233º Ground Speed: 294 Knots Altitude 11017 ft
15:37 TOD
15:37 Fuel Weight: 10324 Lb
15:39 Flaps:1 at 193 Knots
15:39 Flaps:0 at 189 Knots
15:40 Flaps:1 at 181 Knots
15:45 Wind:329º@012 Knots Heading: 140º Ground Speed: 135 Knots Altitude 2831 ft
15:49 Gear Down: 151 Knots
15:49 Flaps:2 at 151 Knots
15:52 TouchDown:Rate -338 ft/min Speed: 112 Knots
15:52 VATSIM:LICG 151455Z 33015KT 9999 SCT020 SCT030 23/19 Q1010
15:52 Land
15:52 Wind:329º@012 Knots
15:52 Heading: 197º
15:52 Flight Duration: 00:37
15:52 Landing Weight: 50222 Lbs
15:52 POS N36º 48´ 49´´ E011º 57´ 20´´
23:49 UTC Jump: removed 1 Hour from Log
23:49 Parking brakes on
23:49 Block to Block Duration: 07:40
23:49 Final Fuel: 10092 Lbls
23:49 Spent Fuel: 1104 Lbls
23:49 Flight Length: 143 NM
23:49 TOD Land Length: 42 NM

Exportar CSV

Powered by Drupal - Modified by Danger4k